Share

Tananarive, Madagascar

18:17 EAT le 24 avril 2014 (GMT +0300)
Ivato (FMMI) Alt. 4186 ft | 18.80 °S, 47.48 °E | Change Station

Current weather conditions updated 17 minutes ago

Partly Cloudy
Partiellement nuageux
68 ° F
Paraît 68 ° F
N
7
Vent Variable Vent de ENE
Lever du soleil 6:02 AM
Coucher du soleil 5:33 PM
Lune Lune descendante

Demain il est prévu de faire pratiquement la même température qu’aujourd’hui.

Pression 30.21 pouce
Visibilité 6.2 Miles terrestres
Nuages Peu 2000 ft
Point de rosée 61 ° F
Humidité 78%
Précipitations 0.00 pouce
Profondeur de la couche neigeuse Non disponible.
UV 0 sur 16
Pollen Non disponible.
Qualité de l'air Non disponible.
Flu Activity Non disponible.
METAR FMMI 241500Z 07006KT 9999 FEW020CB 20/16 Q1023 NOSIG

More Conditions Fewer Conditions

Pression 30.21 pouce
Visibilité 6.2 Miles terrestres
Nuages Peu 2000 ft
Point de rosée 61 ° F
Humidité 78%
Précipitations 0.00 pouce
Profondeur de la couche neigeuse Non disponible.
UV 0 sur 16
Pollen Non disponible.
Qualité de l'air Non disponible.
Flu Activity Non disponible.
METAR FMMI 241500Z 07006KT 9999 FEW020CB 20/16 Q1023 NOSIG

More Conditions Fewer Conditions

10-Day Weather Forecast

Almanac

Astronomie

Apr. 24, 2014 Lever Coucher
Temps réel 06:02 EAT 17:33 EAT
Crépuscule civil 05:40 EAT 17:56 EAT
Crépuscule nautique 05:14 EAT 18:22 EAT
Crépuscule astronomique 04:48 EAT 18:47 EAT
Lune 01:13 EAT 13:59 EAT
Durée de lumière visible 12h 16m
Longueur du jour
11h 31m
Tomorrow will be 0m 57s shorter.
Lune descendante, 25% of the Moon is Illuminated
Aujourd'hui
Lune descendante
avr 29
Nouveau
mai 6
Premier quartier
mai 14
Pleine lune
mai 21
Dernier quartier

Extrêmes aujourd'hui

Country Highs Country Lows

Community

  • Sunset at Apalachicola Bay, Florida
    Sunset at Apalachicola Bay, Florida
  • Clouds mov'n in
    Clouds mov'n in
  • Stacked
    Stacked
  • clouds approaching Red Sox Nation
    clouds approaching Red Sox Nation
  • Balance
    Balance

WunderPhotos

Upload Photos

1,704,648 Photos téléchargées !

Nearby

Qualité de l'air

Not available.

Épaisseur de neige

Not available.

Températures des eaux côtières

Lieu Température
Aucun rapport de station

Activité sismique

Ville Distance Mag. Time & Date
No recent earthquake activity has been reported nearby.
Minimum magnitude displayed is 2.5.

Stations météo à proximité

Il n'y a aucune station météorologique personnelle dans cette zone.

What do you think?

We're not finished. Please let us know what you like, what you don't like, and what you are still missing.